Time;durP1;ratioP1;P1;durP2;ratioP2;P2;SDS_P1;SDS_P2;PMS_P1;PMS_P2;Temp;Humidity;BMP_temperature;BMP_pressure;BME280_temperature;BME280_humidity;BME280_pressure;Samples;Min_cycle;Max_cycle;Signal;HPM_P1;HPM_P2
2022/09/18 00:01:25;;;;;;;6.80;1.83;;;;;;;12.09;100.00;101497.06;5060294;28;20028;-54
2022/09/18 00:03:56;;;;;;;6.78;2.35;;;;;;;12.07;100.00;101488.31;5067286;28;20047;-53
2022/09/18 00:06:26;;;;;;;7.13;2.30;;;;;;;12.08;100.00;101494.63;5057984;28;20526;-52
2022/09/18 00:08:56;;;;;;;5.97;2.22;;;;;;;12.06;100.00;101491.31;5049089;28;20156;-54
2022/09/18 00:11:28;;;;;;;10.35;2.80;;;;;;;12.05;100.00;101493.22;5065276;28;20049;-53
2022/09/18 00:13:56;;;;;;;11.25;2.67;;;;;;;12.03;100.00;101487.22;5065977;28;20052;-51
2022/09/18 00:16:25;;;;;;;6.90;2.03;;;;;;;12.04;100.00;101490.75;5072005;28;20058;-52
2022/09/18 00:18:53;;;;;;;7.95;2.38;;;;;;;12.06;100.00;101488.59;5072891;28;20036;-50
2022/09/18 00:21:23;;;;;;;6.68;2.47;;;;;;;12.05;100.00;101489.66;5069759;28;20077;-52
2022/09/18 00:23:56;;;;;;;8.02;2.63;;;;;;;12.06;100.00;101483.13;5063476;28;20407;-50
2022/09/18 00:26:24;;;;;;;7.35;2.45;;;;;;;12.05;100.00;101484.19;5068867;28;20036;-50
2022/09/18 00:28:53;;;;;;;6.78;2.38;;;;;;;12.05;100.00;101489.66;5065779;28;20402;-50
2022/09/18 00:31:28;;;;;;;7.70;2.30;;;;;;;12.04;100.00;101486.09;5068883;28;20062;-50
2022/09/18 00:33:59;;;;;;;5.20;2.03;;;;;;;12.07;100.00;101482.84;5062719;28;20044;-52
2022/09/18 00:36:28;;;;;;;7.43;2.55;;;;;;;12.05;100.00;101481.47;5069927;28;20110;-54
2022/09/18 00:39:01;;;;;;;9.90;2.22;;;;;;;12.06;100.00;101483.13;5069598;28;20070;-54
2022/09/18 00:41:32;;;;;;;6.40;2.25;;;;;;;12.06;100.00;101483.94;5062670;28;20037;-51
2022/09/18 00:44:28;;;;;;;8.85;2.03;;;;;;;12.08;100.00;101492.69;5071670;28;20062;-52
2022/09/18 00:47:06;;;;;;;10.07;2.50;;;;;;;12.07;100.00;101501.16;5065851;28;20036;-50
2022/09/18 00:49:34;;;;;;;6.28;2.03;;;;;;;12.06;100.00;101499.50;5058864;28;20070;-50
2022/09/18 00:52:02;;;;;;;6.93;2.20;;;;;;;12.06;100.00;101499.50;5070244;28;20453;-51
2022/09/18 00:54:39;;;;;;;7.10;2.30;;;;;;;12.05;100.00;101484.19;5063903;28;20048;-49
2022/09/18 00:57:22;;;;;;;7.28;2.55;;;;;;;12.07;100.00;101490.22;5070746;28;20041;-50
2022/09/18 00:59:51;;;;;;;7.88;2.50;;;;;;;12.08;100.00;101481.78;5058494;28;20503;-51
2022/09/18 01:02:19;;;;;;;6.78;2.05;;;;;;;12.08;100.00;101486.44;5051240;28;20049;-50
2022/09/18 01:04:48;;;;;;;7.57;2.47;;;;;;;12.08;100.00;101483.69;5056856;28;20040;-52
2022/09/18 01:07:52;;;;;;;6.97;2.10;;;;;;;12.02;100.00;101482.81;5069041;28;20071;-50
2022/09/18 01:10:42;;;;;;;10.23;2.47;;;;;;;12.04;100.00;101488.84;5062816;28;20559;-55
2022/09/18 01:13:33;;;;;;;7.63;2.20;;;;;;;12.04;100.00;101490.75;5057763;28;20047;-50
2022/09/18 01:16:07;;;;;;;6.35;2.20;;;;;;;12.01;100.00;101491.28;5075051;28;20044;-50
2022/09/18 01:18:40;;;;;;;4.97;1.95;;;;;;;12.01;100.00;101486.63;5072399;28;20082;-52
2022/09/18 01:21:13;;;;;;;7.32;2.15;;;;;;;12.02;100.00;101487.47;5074715;28;20040;-50
2022/09/18 01:24:11;;;;;;;7.03;2.20;;;;;;;12.02;100.00;101487.47;5074156;28;20044;-53
2022/09/18 01:26:47;;;;;;;7.13;2.20;;;;;;;12.02;100.00;101487.47;5071020;28;20684;-52
2022/09/18 01:29:41;;;;;;;6.53;2.30;;;;;;;12.05;100.00;101495.97;5068861;28;20033;-51
2022/09/18 01:32:19;;;;;;;7.28;2.47;;;;;;;12.03;100.00;101489.94;5073879;28;20044;-54
2022/09/18 01:34:48;;;;;;;7.75;2.60;;;;;;;12.02;100.00;101488.28;5074680;28;20399;-54
2022/09/18 01:37:57;;;;;;;6.10;1.80;;;;;;;12.02;100.00;101484.72;5057654;28;20047;-54
2022/09/18 01:40:29;;;;;;;12.80;2.67;;;;;;;12.04;100.00;101488.03;5046090;28;20040;-54
2022/09/18 01:43:01;;;;;;;10.93;2.90;;;;;;;12.05;100.00;101481.47;5058961;28;20049;-50
2022/09/18 01:45:32;;;;;;;7.00;2.00;;;;;;;12.05;100.00;101484.19;5064466;28;20041;-50
2022/09/18 01:48:04;;;;;;;5.80;2.03;;;;;;;12.04;100.00;101475.19;5054586;28;20045;-54
2022/09/18 01:50:39;;;;;;;7.32;2.20;;;;;;;12.05;100.00;101479.56;5056359;28;20037;-51
2022/09/18 01:53:12;;;;;;;5.13;1.55;;;;;;;12.07;100.00;101484.75;5025548;28;20037;-54
2022/09/18 01:55:48;;;;;;;6.78;2.30;;;;;;;12.05;100.00;101481.47;5073651;28;20044;-54
2022/09/18 01:58:18;;;;;;;8.48;2.10;;;;;;;12.04;100.00;101474.38;5058026;28;20045;-54
2022/09/18 02:00:53;;;;;;;5.13;1.90;;;;;;;12.02;100.00;101471.06;5053760;28;20045;-49
2022/09/18 02:03:30;;;;;;;6.20;2.00;;;;;;;12.00;100.00;101467.78;5055295;28;20040;-54
2022/09/18 02:06:43;;;;;;;7.57;2.15;;;;;;;12.01;100.00;101474.91;5073012;28;20040;-49
2022/09/18 02:09:12;;;;;;;5.88;2.10;;;;;;;12.01;100.00;101470.25;5056388;28;20066;-51
2022/09/18 02:11:45;;;;;;;7.22;2.20;;;;;;;12.01;100.00;101469.44;5068485;28;20052;-52
2022/09/18 02:14:27;;;;;;;5.20;1.85;;;;;;;12.03;100.00;101467.28;5073789;28;20543;-51
2022/09/18 02:17:26;;;;;;;6.55;2.45;;;;;;;12.04;100.00;101474.38;5056304;28;20105;-52
2022/09/18 02:19:57;;;;;;;6.73;2.00;;;;;;;12.02;100.00;101471.06;5064004;28;20045;-50
2022/09/18 02:22:29;;;;;;;7.22;2.05;;;;;;;12.00;100.00;101475.97;5049076;28;20299;-54
2022/09/18 02:25:00;;;;;;;5.63;2.03;;;;;;;11.96;100.00;101472.13;5071587;28;20101;-53
2022/09/18 02:27:29;;;;;;;4.72;1.90;;;;;;;11.92;100.00;101472.63;5074067;28;20033;-50
2022/09/18 02:29:58;;;;;;;9.48;2.10;;;;;;;11.92;100.00;101472.63;5071007;28;20491;-51
2022/09/18 02:32:25;;;;;;;7.15;2.22;;;;;;;11.95;100.00;101463.09;5057010;28;20478;-52
2022/09/18 02:34:53;;;;;;;6.47;2.13;;;;;;;11.96;100.00;101464.75;5073803;28;20093;-52
2022/09/18 02:37:35;;;;;;;6.13;1.67;;;;;;;11.98;100.00;101467.19;5075190;28;20092;-53
2022/09/18 02:40:08;;;;;;;6.30;2.00;;;;;;;11.99;100.00;101460.69;5071871;28;20036;-55
2022/09/18 02:43:02;;;;;;;5.35;1.95;;;;;;;11.98;100.00;101454.41;5059382;28;20041;-51
2022/09/18 02:45:52;;;;;;;6.90;2.40;;;;;;;12.00;100.00;101454.13;5070913;28;20048;-53
2022/09/18 02:48:35;;;;;;;5.70;2.22;;;;;;;12.02;100.00;101454.69;5067227;28;20041;-55
2022/09/18 02:51:08;;;;;;;7.43;2.30;;;;;;;12.03;100.00;101450.88;5070239;28;20047;-55
2022/09/18 02:53:51;;;;;;;4.40;1.73;;;;;;;12.01;100.00;101456.59;5054714;28;20063;-54
2022/09/18 02:56:33;;;;;;;8.43;2.47;;;;;;;12.01;100.00;101453.03;5073205;28;20032;-52
2022/09/18 02:59:11;;;;;;;5.97;2.03;;;;;;;12.02;100.00;101446.50;5034457;28;20683;-51
2022/09/18 03:01:42;;;;;;;6.28;2.15;;;;;;;12.02;100.00;101449.22;5059372;28;20052;-52
2022/09/18 03:04:13;;;;;;;5.50;2.25;;;;;;;12.01;100.00;101448.41;5052655;28;20033;-49
2022/09/18 03:07:04;;;;;;;6.05;2.20;;;;;;;12.01;100.00;101442.13;5069629;28;20116;-53
2022/09/18 03:09:38;;;;;;;4.15;1.90;;;;;;;12.01;100.00;101440.22;5053526;28;20037;-51
2022/09/18 03:12:06;;;;;;;6.78;2.28;;;;;;;12.03;100.00;101440.78;5066020;28;20060;-53
2022/09/18 03:14:38;;;;;;;9.88;2.45;;;;;;;12.04;100.00;101438.84;5069591;28;20093;-49
2022/09/18 03:17:06;;;;;;;5.32;2.10;;;;;;;12.01;100.00;101437.47;5054949;28;20499;-53
2022/09/18 03:19:33;;;;;;;7.85;2.53;;;;;;;12.00;100.00;101435.00;5062879;28;20065;-51
2022/09/18 03:22:02;;;;;;;6.72;1.88;;;;;;;11.97;100.00;101430.06;5072703;28;20041;-51
2022/09/18 03:24:34;;;;;;;8.25;2.45;;;;;;;11.95;100.00;101438.50;5054142;28;20032;-51
2022/09/18 03:27:04;;;;;;;7.22;2.45;;;;;;;11.94;100.00;101436.88;5071895;28;20048;-53
2022/09/18 03:29:32;;;;;;;10.73;2.33;;;;;;;11.96;100.00;101442.91;5034884;28;20521;-51
2022/09/18 03:32:02;;;;;;;5.20;2.10;;;;;;;11.97;100.00;101439.06;5062485;28;20395;-51
2022/09/18 03:34:37;;;;;;;7.80;2.78;;;;;;;11.98;100.00;101431.69;5072270;28;20032;-50
2022/09/18 03:37:05;;;;;;;4.05;1.75;;;;;;;11.97;100.00;101432.78;5064574;28;20040;-50
2022/09/18 03:39:33;;;;;;;6.97;2.08;;;;;;;11.96;100.00;101428.44;5057893;28;20414;-52
2022/09/18 03:42:02;;;;;;;6.78;2.42;;;;;;;11.94;100.00;101418.56;5072252;28;20048;-52
2022/09/18 03:44:31;;;;;;;6.90;2.50;;;;;;;11.93;100.00;101419.69;5062580;28;20041;-52
2022/09/18 03:47:03;;;;;;;5.78;2.00;;;;;;;11.93;100.00;101419.69;5073071;28;20497;-54
2022/09/18 03:49:31;;;;;;;8.00;2.47;;;;;;;11.97;100.00;101424.59;5058619;28;20402;-54
2022/09/18 03:51:59;;;;;;;6.97;2.00;;;;;;;11.96;100.00;101420.25;5064072;28;20498;-54
2022/09/18 03:54:33;;;;;;;8.38;2.22;;;;;;;11.94;100.00;101409.56;5071379;28;20039;-50
2022/09/18 03:57:30;;;;;;;7.65;2.28;;;;;;;11.92;100.00;101415.28;5056363;28;20044;-54
2022/09/18 04:00:15;;;;;;;9.10;2.30;;;;;;;11.92;100.00;101423.47;5069408;28;20487;-53
2022/09/18 04:02:45;;;;;;;6.00;2.30;;;;;;;11.92;100.00;101412.56;5063551;28;20037;-55
2022/09/18 04:05:31;;;;;;;10.07;2.17;;;;;;;11.92;100.00;101412.56;5070955;28;20048;-51
2022/09/18 04:08:34;;;;;;;7.57;2.33;;;;;;;11.93;100.00;101411.47;5066477;28;20033;-52
2022/09/18 04:11:22;;;;;;;5.55;2.10;;;;;;;11.93;100.00;101414.22;5070049;28;20054;-54
2022/09/18 04:13:50;;;;;;;6.88;2.05;;;;;;;11.94;100.00;101418.56;5065312;28;20045;-55
2022/09/18 04:16:18;;;;;;;5.82;2.05;;;;;;;11.95;100.00;101416.66;5066338;28;20040;-56
2022/09/18 04:18:45;;;;;;;7.88;2.15;;;;;;;11.96;100.00;101422.97;5056225;28;20044;-54
2022/09/18 04:21:13;;;;;;;10.02;2.65;;;;;;;11.97;100.00;101422.69;5071879;28;20051;-51
2022/09/18 04:23:41;;;;;;;7.90;2.00;;;;;;;12.00;100.00;101421.34;5057618;28;20049;-52
2022/09/18 04:26:09;;;;;;;8.23;2.25;;;;;;;11.99;100.00;101428.72;5071396;28;20052;-51
2022/09/18 04:28:44;;;;;;;7.28;1.90;;;;;;;11.99;100.00;101422.44;5055900;28;20082;-50
2022/09/18 04:31:14;;;;;;;6.20;1.98;;;;;;;11.96;100.00;101420.25;5071221;28;20071;-49
2022/09/18 04:33:42;;;;;;;9.90;2.53;;;;;;;11.94;100.00;101421.31;5053441;28;20040;-51
2022/09/18 04:36:10;;;;;;;7.22;2.40;;;;;;;11.90;100.00;101414.72;5055014;28;20071;-53
2022/09/18 04:38:38;;;;;;;7.70;2.28;;;;;;;11.85;100.00;101411.91;5067722;28;20048;-52
2022/09/18 04:41:06;;;;;;;7.32;2.55;;;;;;;11.85;100.00;101416.56;5072778;28;20043;-48
2022/09/18 04:43:33;;;;;;;8.73;2.25;;;;;;;11.86;100.00;101413.59;5072551;28;20086;-50
2022/09/18 04:46:01;;;;;;;6.93;2.00;;;;;;;11.90;100.00;101411.16;5076600;28;20101;-50
2022/09/18 04:48:29;;;;;;;6.28;2.10;;;;;;;11.90;100.00;101402.97;5064634;28;20078;-49
2022/09/18 04:51:01;;;;;;;9.90;2.75;;;;;;;11.90;100.00;101406.53;5050522;28;20097;-49
2022/09/18 04:53:35;;;;;;;6.57;2.25;;;;;;;11.90;100.00;101417.44;5071418;28;20479;-54
2022/09/18 04:56:03;;;;;;;8.05;2.45;;;;;;;11.92;100.00;101415.28;5062690;28;20041;-53
2022/09/18 04:58:34;;;;;;;9.57;2.55;;;;;;;11.91;100.00;101416.38;5036334;28;20047;-51
2022/09/18 05:01:02;;;;;;;7.82;2.03;;;;;;;11.91;100.00;101413.66;5073183;28;20047;-51
2022/09/18 05:03:30;;;;;;;8.60;2.20;;;;;;;11.93;100.00;101403.28;5075140;28;20498;-54
2022/09/18 05:05:58;;;;;;;6.22;1.90;;;;;;;11.93;100.00;101397.84;5062974;28;20041;-49
2022/09/18 05:08:28;;;;;;;8.55;2.40;;;;;;;11.95;100.00;101411.19;5064102;28;20048;-51
2022/09/18 05:10:56;;;;;;;8.85;2.38;;;;;;;11.94;100.00;101409.56;5070171;28;20529;-50
2022/09/18 05:13:27;;;;;;;9.35;2.00;;;;;;;11.95;100.00;101405.75;5074862;28;20055;-53
2022/09/18 05:16:00;;;;;;;8.55;2.45;;;;;;;11.96;100.00;101412.06;5070122;28;20410;-54
2022/09/18 05:18:30;;;;;;;4.70;1.77;;;;;;;11.96;100.00;101403.84;5073832;28;20064;-52
2022/09/18 05:21:02;;;;;;;3.45;1.60;;;;;;;11.97;100.00;101410.94;5058140;28;20038;-50
2022/09/18 05:23:33;;;;;;;9.82;2.10;;;;;;;11.97;100.00;101406.31;5067851;28;20101;-50
2022/09/18 05:26:04;;;;;;;10.15;2.83;;;;;;;11.96;100.00;101412.88;5072201;28;20048;-51
2022/09/18 05:28:31;;;;;;;8.75;2.33;;;;;;;11.93;100.00;101414.22;5068659;28;20048;-51
2022/09/18 05:31:00;;;;;;;7.53;1.98;;;;;;;11.91;100.00;101410.91;5056303;28;20102;-53
2022/09/18 05:33:40;;;;;;;6.35;2.13;;;;;;;11.89;100.00;101413.09;5063717;28;20040;-51
2022/09/18 05:36:08;;;;;;;11.05;2.15;;;;;;;11.87;100.00;101408.97;5053321;28;20457;-53
2022/09/18 05:38:36;;;;;;;6.20;2.10;;;;;;;11.84;100.00;101407.56;5072490;28;20066;-52
2022/09/18 05:41:07;;;;;;;6.80;2.45;;;;;;;11.87;100.00;101407.06;5058297;28;20041;-51
2022/09/18 05:43:35;;;;;;;10.02;2.30;;;;;;;11.88;100.00;101416.06;5070716;28;20068;-51
2022/09/18 05:46:07;;;;;;;7.35;1.75;;;;;;;11.88;100.00;101416.91;5074160;28;20049;-54
2022/09/18 05:48:43;;;;;;;5.28;1.92;;;;;;;11.90;100.00;101417.44;5058792;28;20036;-50
2022/09/18 05:51:11;;;;;;;10.93;2.55;;;;;;;11.92;100.00;101423.47;5073908;28;20041;-55
2022/09/18 05:53:40;;;;;;;8.02;2.00;;;;;;;11.90;100.00;101422.09;5071102;28;20059;-52
2022/09/18 05:56:16;;;;;;;8.52;2.08;;;;;;;11.87;100.00;101439.00;5054077;28;20049;-54
2022/09/18 05:58:45;;;;;;;7.00;1.88;;;;;;;11.84;100.00;101431.31;5073358;28;20530;-52
2022/09/18 06:01:13;;;;;;;6.45;2.05;;;;;;;11.82;100.00;101423.38;5046175;28;20052;-55
2022/09/18 06:04:01;;;;;;;6.93;2.08;;;;;;;11.82;100.00;101422.56;5059718;28;20403;-53
2022/09/18 06:06:39;;;;;;;6.32;2.20;;;;;;;11.81;100.00;101420.91;5069269;28;20033;-55
2022/09/18 06:09:06;;;;;;;9.38;1.85;;;;;;;11.81;100.00;101423.63;5065735;28;20090;-53
2022/09/18 06:11:34;;;;;;;6.47;2.08;;;;;;;11.82;100.00;101423.38;5070797;28;20456;-51
2022/09/18 06:14:02;;;;;;;6.35;1.95;;;;;;;11.85;100.00;101422.03;5061901;28;20406;-50
2022/09/18 06:16:29;;;;;;;6.63;1.85;;;;;;;11.87;100.00;101419.91;5060101;28;20041;-50
2022/09/18 06:19:02;;;;;;;8.13;2.17;;;;;;;11.86;100.00;101421.78;5072828;28;20506;-52
2022/09/18 06:21:30;;;;;;;5.88;1.65;;;;;;;11.85;100.00;101406.47;5074380;28;20119;-52
2022/09/18 06:23:58;;;;;;;7.68;2.05;;;;;;;11.87;100.00;101393.41;5074785;28;20045;-53
2022/09/18 06:26:35;;;;;;;5.78;1.48;;;;;;;11.94;100.00;101385.00;5045176;28;20495;-54
2022/09/18 06:29:03;;;;;;;6.47;1.98;;;;;;;11.95;100.00;101383.91;5070315;28;20052;-55
2022/09/18 06:31:37;;;;;;;11.13;2.03;;;;;;;11.96;100.00;101384.75;5067035;28;21667;-55
2022/09/18 06:34:08;;;;;;;5.05;1.40;;;;;;;11.96;100.00;101380.09;5067613;28;20029;-57
2022/09/18 06:36:35;;;;;;;6.45;1.70;;;;;;;11.96;100.00;101396.47;5059282;28;20091;-57
2022/09/18 06:39:35;;;;;;;6.45;1.63;;;;;;;11.97;100.00;101392.66;5060638;28;20048;-59
2022/09/18 06:42:04;;;;;;;6.75;1.98;;;;;;;11.97;100.00;101391.84;5066151;28;20037;-55
2022/09/18 06:44:58;;;;;;;8.10;1.95;;;;;;;12.00;100.00;101389.41;5067104;28;20052;-57
2022/09/18 06:47:28;;;;;;;9.73;2.53;;;;;;;12.06;100.00;101401.19;5045128;28;20514;-55
2022/09/18 06:49:56;;;;;;;6.07;1.95;;;;;;;12.08;100.00;101396.28;5067633;28;20048;-57
2022/09/18 06:52:24;;;;;;;9.50;2.45;;;;;;;12.07;100.00;101397.34;5054809;28;20044;-54
2022/09/18 06:54:55;;;;;;;7.13;1.88;;;;;;;12.10;100.00;101415.97;5071639;28;20036;-56
2022/09/18 06:57:31;;;;;;;9.45;2.08;;;;;;;12.11;100.00;101414.88;5070098;28;20041;-55
2022/09/18 06:59:58;;;;;;;7.78;2.15;;;;;;;12.10;100.00;101410.50;5073893;28;20040;-56
2022/09/18 07:02:29;;;;;;;4.88;1.75;;;;;;;12.09;100.00;101403.38;5060236;28;20503;-54
2022/09/18 07:05:02;;;;;;;4.95;1.77;;;;;;;12.10;100.00;101400.41;5055035;28;20041;-53
2022/09/18 07:07:30;;;;;;;8.05;2.35;;;;;;;12.12;100.00;101402.84;5071924;28;20041;-54
2022/09/18 07:09:57;;;;;;;5.68;1.90;;;;;;;12.11;100.00;101406.66;5052824;28;20090;-54
2022/09/18 07:12:36;;;;;;;3.95;1.60;;;;;;;12.12;100.00;101411.88;5070165;28;20059;-54
2022/09/18 07:15:06;;;;;;;3.85;1.70;;;;;;;12.08;100.00;101399.84;5067118;28;20041;-56
2022/09/18 07:17:34;;;;;;;6.57;1.85;;;;;;;12.04;100.00;101409.63;5053549;28;20044;-57
2022/09/18 07:20:03;;;;;;;9.57;2.60;;;;;;;11.99;100.00;101406.06;5066061;28;20036;-55
2022/09/18 07:22:38;;;;;;;4.93;1.70;;;;;;;11.97;100.00;101398.09;5062154;28;20041;-58
2022/09/18 07:25:11;;;;;;;10.18;2.45;;;;;;;11.93;100.00;101400.56;5055310;28;20083;-58
2022/09/18 07:27:42;;;;;;;8.65;2.47;;;;;;;11.94;100.00;101404.09;5063082;28;20044;-56
2022/09/18 07:30:12;;;;;;;11.18;3.17;;;;;;;11.96;100.00;101401.94;5067097;28;20045;-54
2022/09/18 07:32:39;;;;;;;6.20;2.00;;;;;;;11.99;100.00;101397.84;5069858;28;20048;-53
2022/09/18 07:35:13;;;;;;;5.57;1.70;;;;;;;12.04;100.00;101400.63;5067891;28;20077;-59
2022/09/18 07:37:42;;;;;;;11.55;2.58;;;;;;;12.06;100.00;101393.00;5067566;28;20044;-54
2022/09/18 07:40:15;;;;;;;10.02;2.17;;;;;;;12.08;100.00;101399.00;5077861;28;20040;-55
2022/09/18 07:43:07;;;;;;;5.00;2.10;;;;;;;12.11;100.00;101379.34;5054926;28;20048;-53
2022/09/18 07:45:37;;;;;;;7.38;2.38;;;;;;;12.14;100.00;101389.75;5071308;28;20040;-53
2022/09/18 07:48:05;;;;;;;8.07;1.70;;;;;;;12.17;100.00;101386.50;5072956;28;20047;-54
2022/09/18 07:50:39;;;;;;;4.95;2.00;;;;;;;12.20;100.00;101383.25;5072102;28;20036;-54
2022/09/18 07:53:09;;;;;;;5.85;1.85;;;;;;;12.24;100.00;101388.97;5070204;28;20410;-54
2022/09/18 07:55:44;;;;;;;8.75;2.30;;;;;;;12.24;100.00;101398.03;5072188;28;20044;-54
2022/09/18 07:58:13;;;;;;;8.70;2.00;;;;;;;12.20;100.00;101396.91;5071933;28;20048;-55
2022/09/18 08:01:01;;;;;;;7.85;2.13;;;;;;;12.19;100.00;101394.41;5071878;28;20041;-54
2022/09/18 08:03:30;;;;;;;5.85;2.38;;;;;;;12.21;100.00;101378.59;5067710;28;20056;-53
2022/09/18 08:06:24;;;;;;;8.93;2.55;;;;;;;12.28;100.00;101385.44;5050384;28;20410;-56
2022/09/18 08:09:06;;;;;;;8.48;2.50;;;;;;;12.31;100.00;101382.22;5054424;28;20057;-54
2022/09/18 08:11:53;;;;;;;8.25;3.30;;;;;;;12.35;100.00;101372.38;5072872;28;20142;-52
2022/09/18 08:14:50;;;;;;;8.82;3.55;;;;;;;12.40;100.00;101387.97;5054462;28;20399;-54
2022/09/18 08:17:32;;;;;;;7.20;3.13;;;;;;;12.43;100.00;101395.63;5071495;28;20044;-55
2022/09/18 08:20:14;;;;;;;11.50;2.90;;;;;;;12.47;100.00;101399.47;5071558;28;20044;-54
2022/09/18 08:23:08;;;;;;;8.27;2.28;;;;;;;12.50;100.00;101387.19;5071460;28;20398;-59
2022/09/18 08:25:40;;;;;;;8.88;2.47;;;;;;;12.52;100.00;101388.56;5050981;28;20079;-58
2022/09/18 08:28:09;;;;;;;8.50;2.72;;;;;;;12.54;100.00;101380.94;5068818;28;20037;-55
2022/09/18 08:30:53;;;;;;;10.73;2.80;;;;;;;12.59;100.00;101391.06;5071475;28;20048;-52
2022/09/18 08:33:21;;;;;;;9.20;3.00;;;;;;;12.66;100.00;101388.09;5070918;28;20040;-56
2022/09/18 08:35:49;;;;;;;10.60;3.80;;;;;;;12.71;100.00;101394.38;5072839;28;20102;-55
2022/09/18 08:38:36;;;;;;;7.20;2.50;;;;;;;12.70;100.00;101387.28;5072273;28;20051;-55
2022/09/18 08:41:34;;;;;;;6.45;1.90;;;;;;;12.72;100.00;101390.56;5072501;28;20045;-54
2022/09/18 08:44:12;;;;;;;6.88;2.13;;;;;;;12.75;100.00;101381.00;5053205;28;20041;-53
2022/09/18 08:47:25;;;;;;;6.00;2.10;;;;;;;12.78;100.00;101391.41;5048979;28;20525;-56
2022/09/18 08:50:02;;;;;;;6.68;2.85;;;;;;;12.81;100.00;101384.56;5051540;28;20056;-52
2022/09/18 08:52:33;;;;;;;12.98;2.72;;;;;;;12.80;100.00;101389.22;5071611;28;20437;-53
2022/09/18 08:55:35;;;;;;;6.97;2.30;;;;;;;12.81;100.00;101379.09;5057452;28;20483;-52
2022/09/18 08:58:29;;;;;;;8.82;2.50;;;;;;;12.80;100.00;101375.56;5071376;28;20048;-54
2022/09/18 09:01:06;;;;;;;9.10;2.70;;;;;;;12.82;100.00;101375.28;5071272;28;20056;-55
2022/09/18 09:03:58;;;;;;;7.90;2.63;;;;;;;12.85;100.00;101369.28;5070413;28;20045;-50
2022/09/18 09:06:31;;;;;;;9.20;2.80;;;;;;;12.84;100.00;101376.63;5048059;28;20033;-51
2022/09/18 09:09:17;;;;;;;10.35;2.90;;;;;;;12.83;100.00;101374.19;5071461;28;20101;-54
2022/09/18 09:12:12;;;;;;;9.13;2.13;;;;;;;12.81;100.00;101379.09;5070966;28;20060;-52
2022/09/18 09:15:11;;;;;;;10.40;2.55;;;;;;;12.81;100.00;101384.56;5071557;28;20048;-53
2022/09/18 09:18:10;;;;;;;10.20;3.38;;;;;;;12.79;100.00;101388.41;5051632;28;20047;-55
2022/09/18 09:20:54;;;;;;;8.10;2.15;;;;;;;12.78;100.00;101381.28;5072143;28;20055;-52
2022/09/18 09:23:55;;;;;;;8.30;2.30;;;;;;;12.72;100.00;101382.38;5069366;28;20052;-54
2022/09/18 09:27:10;;;;;;;10.38;2.22;;;;;;;12.78;100.00;101375.81;5058296;28;20491;-54
2022/09/18 09:30:10;;;;;;;8.07;1.95;;;;;;;12.72;100.00;101376.06;5060806;28;20047;-55
2022/09/18 09:33:20;;;;;;;7.75;2.25;;;;;;;12.74;100.00;101377.44;5075637;28;20406;-54
2022/09/18 09:36:19;;;;;;;9.70;2.05;;;;;;;12.76;100.00;101377.19;5058763;28;20440;-55
2022/09/18 09:39:03;;;;;;;9.55;2.70;;;;;;;12.77;100.00;101379.66;5058629;28;20040;-52
2022/09/18 09:41:40;;;;;;;5.30;1.92;;;;;;;12.76;100.00;101383.47;5074097;28;20110;-51
2022/09/18 09:44:28;;;;;;;7.43;1.73;;;;;;;12.74;100.00;101379.34;5074090;28;20054;-50
2022/09/18 09:47:14;;;;;;;11.55;3.10;;;;;;;12.77;100.00;101368.72;5071568;28;20037;-52
2022/09/18 09:50:04;;;;;;;7.28;2.28;;;;;;;12.84;100.00;101362.16;5041069;28;20048;-57
2022/09/18 09:52:37;;;;;;;8.45;2.92;;;;;;;12.88;100.00;101368.72;5074462;28;20407;-53
2022/09/18 09:55:25;;;;;;;8.35;2.53;;;;;;;12.95;100.00;101353.69;5071254;28;20085;-54
2022/09/18 09:58:12;;;;;;;5.30;1.75;;;;;;;12.96;100.00;101349.03;5050646;28;20499;-51
2022/09/18 10:01:15;;;;;;;7.65;2.03;;;;;;;12.98;100.00;101342.22;5068840;28;20056;-52
2022/09/18 10:03:43;;;;;;;5.40;2.50;;;;;;;13.00;100.00;101344.69;5073970;28;20461;-51
2022/09/18 10:06:30;;;;;;;6.75;2.20;;;;;;;13.02;100.00;101342.50;5055490;28;20040;-55
2022/09/18 10:09:04;;;;;;;8.43;2.42;;;;;;;13.02;100.00;101352.63;5072867;28;20056;-51
2022/09/18 10:11:34;;;;;;;7.25;1.77;;;;;;;13.02;100.00;101344.41;5073581;28;20060;-51
2022/09/18 10:14:11;;;;;;;6.82;2.47;;;;;;;13.00;100.00;101344.69;5053997;28;20056;-51
2022/09/18 10:16:45;;;;;;;6.32;2.22;;;;;;;13.02;100.00;101341.69;5056540;28;20067;-51
2022/09/18 10:19:16;;;;;;;7.57;2.00;;;;;;;13.05;100.00;101346.59;5073765;28;20186;-52
2022/09/18 10:21:44;;;;;;;5.10;1.60;;;;;;;13.06;100.00;101343.63;5073593;28;20033;-51
2022/09/18 10:24:46;;;;;;;7.15;1.80;;;;;;;13.08;100.00;101352.34;5073810;28;20032;-53
2022/09/18 10:27:16;;;;;;;10.88;2.40;;;;;;;13.10;100.00;101350.16;5065521;28;20052;-53
2022/09/18 10:29:45;;;;;;;6.22;1.70;;;;;;;13.10;100.00;101355.63;5073385;28;20082;-55
2022/09/18 10:32:40;;;;;;;13.35;2.88;;;;;;;13.08;100.00;101368.75;5073345;28;20117;-51
2022/09/18 10:35:34;;;;;;;6.85;1.70;;;;;;;13.04;100.00;101383.28;5072779;28;20047;-56
2022/09/18 10:38:02;;;;;;;9.07;2.33;;;;;;;13.02;100.00;101391.75;5073473;28;20036;-53
2022/09/18 10:40:38;;;;;;;12.07;2.55;;;;;;;12.98;100.00;101401.56;5053965;28;20499;-57
2022/09/18 10:43:16;;;;;;;7.20;1.92;;;;;;;12.65;100.00;101403.69;5049574;28;20040;-56
2022/09/18 10:45:55;;;;;;;4.07;1.77;;;;;;;12.43;100.00;101389.34;5053593;28;20052;-57
2022/09/18 10:48:29;;;;;;;5.68;1.40;;;;;;;12.33;100.00;101403.78;5067451;28;20041;-54
2022/09/18 10:51:02;;;;;;;9.05;2.38;;;;;;;12.35;100.00;101393.41;5073149;28;20044;-55
2022/09/18 10:53:38;;;;;;;6.22;1.88;;;;;;;12.34;100.00;101386.31;5054078;28;20513;-53
2022/09/18 10:56:18;;;;;;;5.38;1.60;;;;;;;12.34;100.00;101383.59;5071670;28;20048;-55
2022/09/18 10:58:48;;;;;;;;;;;;;;;12.38;100.00;101383.88;5058112;28;20055;-53
2022/09/18 11:01:16;;;;;;;6.18;2.05;;;;;;;12.39;100.00;101372.69;5054228;28;19921;-54
2022/09/18 11:03:59;;;;;;;7.13;1.77;;;;;;;12.42;100.00;101371.31;5073003;28;20042;-56
2022/09/18 11:06:31;;;;;;;6.10;1.98;;;;;;;12.47;100.00;101366.69;5071417;28;20403;-51
2022/09/18 11:09:09;;;;;;;4.38;1.50;;;;;;;12.51;100.00;101369.72;5054194;28;20037;-53
2022/09/18 11:11:43;;;;;;;4.68;1.48;;;;;;;12.56;100.00;101372.47;5067276;28;20059;-54
2022/09/18 11:14:38;;;;;;;3.97;1.30;;;;;;;12.58;100.00;101367.56;5068599;28;20048;-53
2022/09/18 11:17:38;;;;;;;5.50;1.40;;;;;;;12.64;100.00;101384.78;5069765;28;20062;-53
2022/09/18 11:20:23;;;;;;;6.33;1.70;;;;;;;12.66;100.00;101371.69;4513945;28;10002594;-57
2022/09/18 11:23:20;;;;;;;7.35;1.80;;;;;;;12.67;100.00;101376.88;5062775;28;20430;-56
2022/09/18 11:26:09;;;;;;;6.20;1.90;;;;;;;12.63;100.00;101373.03;5067352;28;20045;-55
2022/09/18 11:28:37;;;;;;;8.60;2.35;;;;;;;12.64;100.00;101363.75;5070545;28;20397;-56
2022/09/18 11:31:16;;;;;;;5.93;1.67;;;;;;;12.62;100.00;101365.91;5039607;28;20049;-52
2022/09/18 11:33:51;;;;;;;4.68;1.52;;;;;;;12.66;100.00;101366.22;5052015;28;20051;-55
2022/09/18 11:36:29;;;;;;;10.30;1.98;;;;;;;12.68;100.00;101364.03;5041657;28;20407;-56
2022/09/18 11:38:59;;;;;;;5.45;1.70;;;;;;;12.70;100.00;101351.75;5052366;28;20053;-55
2022/09/18 11:41:34;;;;;;;4.90;1.75;;;;;;;12.70;100.00;101362.69;5067878;28;20553;-53
2022/09/18 11:44:25;;;;;;;11.82;2.30;;;;;;;12.74;100.00;101361.03;5016854;28;20052;-51
2022/09/18 11:47:06;;;;;;;7.45;1.88;;;;;;;12.76;100.00;101358.84;5068761;28;20051;-56
2022/09/18 11:50:01;;;;;;;5.63;1.83;;;;;;;12.78;100.00;101359.41;5057982;28;20056;-52
2022/09/18 11:52:53;;;;;;;9.07;2.28;;;;;;;12.79;100.00;101361.06;5063771;28;20049;-55
2022/09/18 11:55:32;;;;;;;6.15;1.90;;;;;;;12.78;100.00;101364.88;5048836;28;20454;-54
2022/09/18 11:58:04;;;;;;;7.85;2.00;;;;;;;12.79;100.00;101373.91;5061992;28;20460;-53
2022/09/18 12:00:36;;;;;;;10.85;2.15;;;;;;;12.80;100.00;101378.28;5049099;28;20052;-51